Fleurus, Belgium
Current Conditions -  °F | °C
As of 4:20 PM on Wednesday 26 Nov 2014 (Local Time) from EBCI Reporting Station
Haze Haze  
Wind Chill: 45°   Ceiling: 600
Heat Index: 48°   Visibility: 2.5mi
Dew Point: 46°   Wind: 8mph
Humidity: 93%   Direction: 160°SSE
Pressure: 29.85"   Gusts: NA
Location:  50.48°N, 4.55°E
Report Text: EBCI 261520Z 16007KT 4000 BR SCT004 BKN006 09/08 Q1011 TEMPO BKN004
Loading
Personal Weather Stations






























Interactive Weather Map New forecast layout! Learn more

10-Day Weather Forecast

Advertisements
Track Severe Weather on mobile